createdAt,value
2023-04-30T00:01:36.301Z,8.54
2023-04-30T00:06:37.970Z,8.54
2023-04-30T00:11:39.714Z,8.30
2023-04-30T00:16:41.572Z,8.33
2023-04-30T00:21:43.174Z,8.31
2023-04-30T00:26:44.774Z,8.31
2023-04-30T00:31:46.448Z,8.22
2023-04-30T00:36:48.042Z,8.21
2023-04-30T00:41:49.688Z,8.02
2023-04-30T00:46:51.301Z,7.75
2023-04-30T00:51:54.206Z,7.63
2023-04-30T00:56:56.224Z,7.54
2023-04-30T01:01:57.944Z,7.42
2023-04-30T01:07:02.198Z,7.29
2023-04-30T01:12:09.957Z,7.02
2023-04-30T01:17:25.900Z,6.78
2023-04-30T01:22:27.439Z,6.70
2023-04-30T01:27:53.620Z,6.63
2023-04-30T01:32:55.916Z,6.57
2023-04-30T01:38:03.852Z,6.38
2023-04-30T01:43:21.072Z,6.17
2023-04-30T01:48:50.829Z,6.03
2023-04-30T01:53:56.950Z,6.02
2023-04-30T01:59:00.763Z,6.05
2023-04-30T02:04:03.791Z,6.00
2023-04-30T02:09:07.003Z,5.73
2023-04-30T02:14:08.674Z,5.63
2023-04-30T02:19:11.197Z,5.49
2023-04-30T02:24:12.882Z,5.34
2023-04-30T02:29:14.462Z,5.55
2023-04-30T02:34:16.084Z,5.41
2023-04-30T02:39:17.739Z,5.17
2023-04-30T02:44:19.412Z,5.17
2023-04-30T02:49:21.103Z,5.28
2023-04-30T02:54:22.775Z,4.99
2023-04-30T02:59:24.423Z,4.76
2023-04-30T03:04:26.296Z,4.39
2023-04-30T03:09:28.120Z,4.12
2023-04-30T03:14:30.400Z,3.91
2023-04-30T03:19:32.310Z,3.71
2023-04-30T03:24:33.946Z,3.63
2023-04-30T03:29:35.767Z,3.71
2023-04-30T03:34:38.331Z,3.51
2023-04-30T03:39:39.966Z,3.46
2023-04-30T03:44:41.912Z,3.27
2023-04-30T03:49:43.931Z,3.23
2023-04-30T03:54:45.557Z,3.36
2023-04-30T03:59:47.796Z,3.54
2023-04-30T04:04:51.342Z,3.82
2023-04-30T04:09:53.370Z,4.11
2023-04-30T04:14:55.247Z,4.30
2023-04-30T04:19:57.741Z,4.31
2023-04-30T04:25:00.747Z,4.13
2023-04-30T04:30:03.808Z,4.09
2023-04-30T04:35:06.380Z,4.18
2023-04-30T04:40:09.102Z,4.20
2023-04-30T04:45:11.126Z,4.17
2023-04-30T04:50:14.257Z,4.24
2023-04-30T04:55:16.489Z,4.31
2023-04-30T05:00:18.968Z,4.37
2023-04-30T05:05:20.837Z,4.54
2023-04-30T05:10:22.428Z,4.73
2023-04-30T05:15:24.141Z,4.97
2023-04-30T05:20:25.793Z,5.12
2023-04-30T05:25:27.589Z,5.43
2023-04-30T05:30:29.898Z,5.79
2023-04-30T05:35:31.771Z,6.35
2023-04-30T05:40:33.941Z,6.59
2023-04-30T05:45:35.797Z,6.88
2023-04-30T05:50:37.470Z,6.90
2023-04-30T05:55:39.153Z,6.98
2023-04-30T06:00:41.003Z,7.18
2023-04-30T06:05:42.817Z,7.32
2023-04-30T06:10:44.833Z,7.11
2023-04-30T06:15:46.633Z,7.20
2023-04-30T06:20:48.264Z,7.36
2023-04-30T06:25:49.951Z,7.37
2023-04-30T06:30:52.277Z,7.31
2023-04-30T06:35:55.553Z,7.28
2023-04-30T06:40:57.255Z,7.44
2023-04-30T06:45:58.984Z,6.80
2023-04-30T06:51:00.835Z,7.27
2023-04-30T06:56:02.670Z,7.35
2023-04-30T07:01:04.325Z,7.67
2023-04-30T07:06:06.152Z,7.74
2023-04-30T07:11:08.085Z,7.88
2023-04-30T07:16:10.863Z,7.87
2023-04-30T07:21:12.555Z,8.49
2023-04-30T07:26:14.445Z,8.54
2023-04-30T07:31:16.131Z,8.87
2023-04-30T07:36:18.025Z,8.78
2023-04-30T07:41:19.671Z,8.69
2023-04-30T07:46:21.363Z,8.65
2023-04-30T07:51:23.030Z,8.78
2023-04-30T07:56:24.698Z,9.00
2023-04-30T08:01:26.781Z,9.60
2023-04-30T08:06:28.935Z,10.04
2023-04-30T08:11:30.666Z,10.26
2023-04-30T08:16:32.446Z,9.51
2023-04-30T08:21:34.276Z,10.15
2023-04-30T08:26:36.006Z,10.41
2023-04-30T08:31:37.915Z,10.66
2023-04-30T08:36:39.753Z,10.79
2023-04-30T08:41:46.318Z,11.51
2023-04-30T08:46:55.882Z,11.39
2023-04-30T08:52:00.111Z,11.25
2023-04-30T08:57:01.834Z,11.58
2023-04-30T09:02:03.567Z,11.76
2023-04-30T09:07:08.153Z,11.47
2023-04-30T09:12:19.702Z,11.30
2023-04-30T09:17:23.012Z,11.49
2023-04-30T09:22:24.888Z,11.52
2023-04-30T09:27:27.018Z,12.17
2023-04-30T09:32:29.109Z,12.19
2023-04-30T09:37:38.257Z,11.80
2023-04-30T09:42:40.133Z,10.18
2023-04-30T09:47:42.909Z,10.34
2023-04-30T09:52:54.660Z,10.47
2023-04-30T09:57:56.382Z,11.26
2023-04-30T10:03:00.141Z,12.07
2023-04-30T10:08:01.976Z,11.26
2023-04-30T10:13:07.779Z,12.45
2023-04-30T10:18:17.756Z,12.55
2023-04-30T10:23:21.761Z,13.18
2023-04-30T10:28:24.009Z,12.40
2023-04-30T10:33:56.769Z,12.81
2023-04-30T10:38:59.929Z,11.92
2023-04-30T10:44:02.951Z,11.95
2023-04-30T10:49:05.324Z,12.53
2023-04-30T10:54:08.294Z,12.83
2023-04-30T10:59:09.955Z,12.73
2023-04-30T11:04:11.837Z,13.94
2023-04-30T11:09:13.656Z,15.50
2023-04-30T11:14:20.862Z,17.94
2023-04-30T11:19:22.856Z,18.42
2023-04-30T11:24:50.794Z,19.20
2023-04-30T11:29:53.814Z,21.78
2023-04-30T11:34:56.013Z,18.74
2023-04-30T11:40:02.915Z,19.10
2023-04-30T11:45:10.407Z,20.34
2023-04-30T11:50:17.143Z,23.58
2023-04-30T11:55:20.791Z,20.64
2023-04-30T12:00:27.989Z,22.39
2023-04-30T12:05:29.759Z,24.29
2023-04-30T12:10:32.584Z,22.71
2023-04-30T12:15:34.357Z,22.17
2023-04-30T12:20:36.220Z,21.12
2023-04-30T12:25:44.597Z,26.26
2023-04-30T12:30:47.348Z,28.39
2023-04-30T12:35:52.446Z,26.95
2023-04-30T12:40:54.054Z,26.36
2023-04-30T12:45:56.510Z,25.19
2023-04-30T12:51:02.397Z,22.84
2023-04-30T12:56:22.359Z,28.48
2023-04-30T13:01:25.396Z,30.72
2023-04-30T13:06:29.284Z,26.17
2023-04-30T13:11:30.969Z,28.97
2023-04-30T13:16:32.901Z,26.26
2023-04-30T13:21:34.877Z,24.81
2023-04-30T13:26:36.654Z,24.40
2023-04-30T13:31:38.373Z,29.66
2023-04-30T13:36:40.223Z,27.38
2023-04-30T13:41:41.968Z,25.17
2023-04-30T13:46:43.846Z,28.69
2023-04-30T13:51:45.670Z,32.55
2023-04-30T13:56:48.745Z,28.60
2023-04-30T14:01:50.392Z,30.89
2023-04-30T14:06:56.381Z,28.95
2023-04-30T14:11:59.092Z,29.02
2023-04-30T14:17:00.990Z,25.41
2023-04-30T14:22:02.598Z,29.40
2023-04-30T14:27:08.417Z,31.50
2023-04-30T14:32:49.094Z,32.60
2023-04-30T14:37:51.179Z,33.78
2023-04-30T14:42:52.793Z,32.19
2023-04-30T14:47:54.521Z,35.19
2023-04-30T14:52:56.537Z,34.67
2023-04-30T14:57:59.139Z,38.24
2023-04-30T15:03:00.893Z,36.80
2023-04-30T15:08:02.582Z,28.35
2023-04-30T15:13:04.337Z,29.93
2023-04-30T15:18:07.284Z,32.01
2023-04-30T15:23:09.172Z,28.53
2023-04-30T15:28:11.293Z,24.39
2023-04-30T15:33:13.143Z,22.39
2023-04-30T15:38:14.813Z,20.02
2023-04-30T15:43:16.610Z,21.05
2023-04-30T15:48:18.217Z,18.65
2023-04-30T15:53:19.925Z,17.26
2023-04-30T15:58:22.263Z,16.12
2023-04-30T16:03:24.047Z,15.15
2023-04-30T16:08:25.804Z,13.99
2023-04-30T16:13:27.623Z,13.58
2023-04-30T16:18:29.855Z,13.93
2023-04-30T16:23:31.620Z,13.24
2023-04-30T16:28:33.438Z,12.93
2023-04-30T16:33:35.056Z,13.24
2023-04-30T16:38:37.030Z,12.95
2023-04-30T16:43:38.679Z,12.56
2023-04-30T16:48:40.314Z,12.13
2023-04-30T16:53:43.334Z,12.26
2023-04-30T16:58:45.502Z,11.98
2023-04-30T17:03:47.455Z,11.93
2023-04-30T17:08:49.300Z,11.71
2023-04-30T17:13:53.502Z,11.55
2023-04-30T17:18:55.267Z,11.41
2023-04-30T17:23:57.060Z,11.39
2023-04-30T17:28:58.740Z,11.27
2023-04-30T17:34:00.420Z,11.13
2023-04-30T17:39:05.498Z,10.99
2023-04-30T17:44:07.210Z,10.84
2023-04-30T17:49:08.858Z,10.63
2023-04-30T17:54:10.566Z,10.33
2023-04-30T17:59:12.607Z,10.19
2023-04-30T18:04:19.371Z,10.11
2023-04-30T18:09:21.292Z,9.94
2023-04-30T18:14:22.898Z,9.52
2023-04-30T18:19:24.577Z,9.22
2023-04-30T18:24:27.837Z,8.87
2023-04-30T18:29:29.496Z,8.55
2023-04-30T18:34:31.240Z,8.21
2023-04-30T18:39:32.866Z,7.95
2023-04-30T18:44:34.910Z,7.69
2023-04-30T18:49:37.147Z,7.46
2023-04-30T18:54:38.787Z,7.32
2023-04-30T18:59:40.437Z,7.21
2023-04-30T19:04:42.209Z,6.94
2023-04-30T19:09:45.266Z,6.70
2023-04-30T19:14:47.194Z,6.35
2023-04-30T19:19:50.135Z,6.17
2023-04-30T19:24:52.550Z,6.06
2023-04-30T19:29:54.693Z,6.00
2023-04-30T19:34:56.695Z,5.93
2023-04-30T19:39:58.398Z,5.95
2023-04-30T19:45:00.059Z,5.89
2023-04-30T19:50:01.749Z,5.84
2023-04-30T19:55:03.713Z,5.78
2023-04-30T20:00:06.410Z,5.90
2023-04-30T20:05:11.838Z,5.64
2023-04-30T20:10:13.667Z,5.38
2023-04-30T20:15:15.321Z,5.13
2023-04-30T20:20:17.714Z,5.07
2023-04-30T20:25:20.763Z,4.90
2023-04-30T20:30:22.514Z,4.75
2023-04-30T20:35:24.184Z,4.64
2023-04-30T20:40:27.002Z,4.64
2023-04-30T20:45:28.667Z,4.43
2023-04-30T20:50:30.406Z,4.25
2023-04-30T20:55:32.125Z,4.07
2023-04-30T21:00:33.762Z,3.97
2023-04-30T21:05:35.431Z,3.85
2023-04-30T21:10:37.408Z,3.72
2023-04-30T21:35:02.121Z,3.25
2023-04-30T21:40:04.297Z,3.21
2023-04-30T21:45:06.440Z,3.17
2023-04-30T21:50:08.628Z,3.07
2023-04-30T21:55:10.312Z,3.07
2023-04-30T22:00:14.465Z,2.99
2023-04-30T22:05:22.388Z,2.90
2023-04-30T22:10:24.230Z,2.81
2023-04-30T22:15:29.259Z,2.81
2023-04-30T22:20:37.266Z,2.60
2023-04-30T22:25:38.999Z,2.46
2023-04-30T22:30:40.612Z,2.38
2023-04-30T22:35:42.353Z,2.42
2023-04-30T22:40:44.082Z,2.30
2023-04-30T22:45:45.728Z,2.19
2023-04-30T22:50:47.452Z,2.23
2023-04-30T22:55:49.710Z,2.20
2023-04-30T23:00:51.528Z,2.06
2023-04-30T23:05:53.291Z,1.99
2023-04-30T23:10:55.724Z,1.92
2023-04-30T23:15:58.992Z,1.87
2023-04-30T23:21:00.872Z,1.89
2023-04-30T23:26:02.566Z,1.78
2023-04-30T23:31:04.320Z,1.69
2023-04-30T23:36:06.518Z,1.63
2023-04-30T23:41:08.678Z,1.63
2023-04-30T23:46:10.372Z,1.57
2023-04-30T23:51:12.285Z,1.47
2023-04-30T23:56:13.959Z,1.39
